Armbrust, PA (15616)

10:07 PM EST on December 09, 2016 (GMT -0500)
Midway St. Clair | | Change Station

Elev 1135 ft 40.27 °N, 79.56 °W | Updated 0 second ago

Mostly Cloudy
Mostly Cloudy
24.1 °F
Feels Like 24 °F
N
0.0
Wind Variable Wind from WSW
Gusts 7.0 mph

Today
High -- | Low -- °F
--% Chance of Precip.
Yesterday
High -- | Low -- °F
Precip. -- in
Pressure 30.40 in
Visibility 10.0 miles
Clouds Mostly Cloudy 2200 ft
Windchill 24 °F
Dew Point 20 °F
Humidity 83%
Rainfall 0.00 in
Snow Depth Not available.
7:29 AM 4:52 PM
Waxing Gibbous, 79% visible
METAR KLBE 100250Z 27012KT 10SM BKN022 M04/M08 A3040
Pressure 30.40 in
Visibility 10.0 miles
Clouds Mostly Cloudy 2200 ft
Windchill 24 °F
Dew Point 20 °F
Humidity 83%
Rainfall 0.00 in
Snow Depth Not available.
7:29 AM 4:52 PM
Waxing Gibbous, 79% visible
METAR KLBE 100250Z 27012KT 10SM BKN022 M04/M08 A3040

10-Day Weather Forecast

Almanac

Astronomy

Dec. 09, 2016 Rise Set
Actual Time
Civil Twilight
Nautical Twilight
Astronomical Twilight
Moon
Length of Visible Light
Length of Day
Tomorrow will be .
, % of the Moon is Illuminated

Today's Extremes

State Highs State Lows

Community

WunderPhotos

Upload Photos

1,956,532 photos uploaded!

WunderBlog® & News

Nearby

Air Quality

  Air Quality AQ Index Pollutant
Not available.

Snow Depth

Station Depth Elevation

Earthquake Activity

City Distance Mag. Time & Date
Minimum magnitude displayed is 2.5.

Coastal Water Temperatures

Place Temperature

Stations

Nearby Weather Stations

Station Location Temp. Windchill Dew Point Humidity Wind Precip. Elev Updated Type
                   

Watches & Warnings

There are currently no watches in effect.